createdAt,value
2023-01-23T00:00:19.199Z,6.39
2023-01-23T00:02:47.925Z,6.37
2023-01-23T00:05:16.517Z,6.29
2023-01-23T00:07:46.267Z,6.21
2023-01-23T00:10:15.006Z,6.21
2023-01-23T00:12:43.757Z,6.23
2023-01-23T00:15:14.018Z,6.25
2023-01-23T00:17:42.574Z,6.19
2023-01-23T00:20:13.130Z,6.32
2023-01-23T00:22:41.578Z,6.05
2023-01-23T00:25:11.457Z,6.11
2023-01-23T00:27:39.906Z,6.15
2023-01-23T00:30:10.762Z,6.07
2023-01-23T00:32:39.198Z,6.01
2023-01-23T00:35:08.470Z,6.05
2023-01-23T00:37:36.807Z,5.68
2023-01-23T00:40:06.616Z,5.71
2023-01-23T00:42:36.404Z,5.73
2023-01-23T00:45:05.590Z,5.72
2023-01-23T00:47:34.076Z,5.85
2023-01-23T00:50:02.444Z,5.83
2023-01-23T00:52:30.768Z,5.92
2023-01-23T00:54:59.122Z,5.88
2023-01-23T00:57:27.402Z,5.84
2023-01-23T00:59:57.117Z,5.79
2023-01-23T01:02:25.683Z,5.92
2023-01-23T01:04:54.682Z,5.91
2023-01-23T01:07:23.711Z,6.03
2023-01-23T01:09:52.297Z,6.03
2023-01-23T01:12:20.735Z,5.92
2023-01-23T01:14:49.248Z,6.00
2023-01-23T01:17:19.036Z,5.97
2023-01-23T01:19:49.572Z,6.01
2023-01-23T01:22:17.943Z,5.98
2023-01-23T01:24:46.553Z,6.09
2023-01-23T01:27:14.920Z,6.04
2023-01-23T01:29:43.331Z,6.07
2023-01-23T01:32:11.834Z,6.12
2023-01-23T01:34:41.587Z,5.87
2023-01-23T01:37:10.523Z,5.97
2023-01-23T01:39:39.466Z,5.94
2023-01-23T01:42:07.956Z,6.11
2023-01-23T01:44:56.006Z,6.10
2023-01-23T01:47:24.562Z,6.03
2023-01-23T01:49:58.785Z,6.04
2023-01-23T01:52:27.793Z,5.99
2023-01-23T01:54:59.979Z,6.01
2023-01-23T01:57:33.690Z,5.91
2023-01-23T02:00:09.038Z,5.82
2023-01-23T02:02:49.542Z,5.68
2023-01-23T02:05:22.788Z,5.72
2023-01-23T02:07:55.954Z,5.99
2023-01-23T02:10:25.562Z,5.89
2023-01-23T02:12:56.419Z,5.82
2023-01-23T02:15:25.014Z,5.98
2023-01-23T02:17:55.835Z,6.03
2023-01-23T02:20:29.406Z,5.84
2023-01-23T02:23:08.830Z,6.01
2023-01-23T02:25:54.535Z,5.43
2023-01-23T02:28:23.299Z,5.90
2023-01-23T02:30:52.133Z,5.88
2023-01-23T02:33:48.376Z,5.76
2023-01-23T02:36:18.358Z,5.93
2023-01-23T02:39:01.393Z,5.79
2023-01-23T02:41:35.656Z,5.90
2023-01-23T02:44:09.349Z,5.92
2023-01-23T02:46:39.206Z,5.94
2023-01-23T02:49:07.663Z,5.98
2023-01-23T02:51:36.469Z,5.90
2023-01-23T02:54:05.612Z,5.83
2023-01-23T02:56:36.047Z,5.77
2023-01-23T02:59:21.829Z,5.83
2023-01-23T03:01:51.543Z,5.85
2023-01-23T03:04:21.015Z,5.83
2023-01-23T03:06:49.366Z,5.79
2023-01-23T03:09:18.819Z,5.73
2023-01-23T03:11:48.840Z,5.83
2023-01-23T03:14:21.713Z,5.83
2023-01-23T03:16:52.743Z,5.85
2023-01-23T03:19:25.235Z,4.66
2023-01-23T03:21:54.695Z,5.81
2023-01-23T03:24:23.823Z,5.64
2023-01-23T03:26:53.734Z,5.48
2023-01-23T03:29:44.573Z,5.30
2023-01-23T03:32:16.536Z,5.46
2023-01-23T03:34:46.389Z,5.41
2023-01-23T03:37:17.533Z,5.56
2023-01-23T03:40:05.624Z,5.32
2023-01-23T03:42:37.291Z,5.38
2023-01-23T03:45:09.056Z,5.16
2023-01-23T03:47:38.074Z,4.89
2023-01-23T03:50:10.134Z,4.95
2023-01-23T03:52:40.800Z,5.03
2023-01-23T03:55:10.885Z,5.05
2023-01-23T03:57:41.583Z,5.19
2023-01-23T04:00:13.729Z,5.07
2023-01-23T04:02:42.433Z,4.93
2023-01-23T04:05:13.960Z,5.17
2023-01-23T04:07:42.503Z,3.14
2023-01-23T04:10:13.246Z,5.25
2023-01-23T04:12:45.524Z,5.23
2023-01-23T04:15:14.808Z,4.83
2023-01-23T04:17:43.394Z,5.36
2023-01-23T04:20:13.457Z,5.48
2023-01-23T04:22:44.283Z,5.21
2023-01-23T04:25:15.214Z,5.33
2023-01-23T04:27:45.167Z,5.32
2023-01-23T04:30:14.931Z,5.25
2023-01-23T04:32:46.435Z,5.42
2023-01-23T04:35:16.804Z,5.49
2023-01-23T04:37:45.784Z,5.58
2023-01-23T04:40:15.163Z,5.39
2023-01-23T04:42:55.674Z,5.02
2023-01-23T04:45:34.430Z,5.33
2023-01-23T04:48:22.694Z,5.64
2023-01-23T04:50:52.160Z,5.63
2023-01-23T04:53:23.851Z,5.06
2023-01-23T04:55:59.353Z,5.39
2023-01-23T04:58:30.724Z,5.52
2023-01-23T05:01:08.323Z,5.63
2023-01-23T05:03:37.740Z,4.97
2023-01-23T05:06:06.913Z,5.44
2023-01-23T05:08:35.436Z,5.71
2023-01-23T05:11:19.841Z,5.78
2023-01-23T05:13:50.311Z,5.68
2023-01-23T05:16:19.792Z,5.81
2023-01-23T05:19:06.863Z,5.59
2023-01-23T05:21:36.051Z,5.80
2023-01-23T05:24:04.771Z,5.84
2023-01-23T05:26:35.108Z,5.75
2023-01-23T05:29:05.203Z,5.90
2023-01-23T05:31:37.306Z,5.93
2023-01-23T05:34:41.063Z,5.97
2023-01-23T05:37:18.613Z,5.84
2023-01-23T05:39:51.333Z,5.87
2023-01-23T05:42:23.047Z,5.47
2023-01-23T05:44:52.906Z,5.79
2023-01-23T05:47:30.241Z,5.74
2023-01-23T05:50:01.189Z,5.80
2023-01-23T05:52:33.900Z,5.68
2023-01-23T05:55:02.640Z,5.75
2023-01-23T05:57:31.283Z,5.84
2023-01-23T06:00:36.365Z,5.31
2023-01-23T06:03:25.637Z,5.49
2023-01-23T06:06:08.866Z,5.41
2023-01-23T06:08:37.350Z,5.66
2023-01-23T06:11:06.228Z,5.50
2023-01-23T06:13:34.729Z,5.45
2023-01-23T06:16:05.293Z,5.21
2023-01-23T06:18:33.949Z,4.97
2023-01-23T06:21:03.167Z,5.10
2023-01-23T06:23:32.392Z,5.13
2023-01-23T06:26:02.962Z,4.61
2023-01-23T06:28:32.699Z,4.64
2023-01-23T06:31:07.268Z,4.75
2023-01-23T06:33:45.100Z,4.53
2023-01-23T06:36:14.297Z,4.29
2023-01-23T06:38:42.859Z,3.87
2023-01-23T06:41:13.906Z,4.32
2023-01-23T06:43:49.966Z,4.43
2023-01-23T06:46:24.877Z,3.84
2023-01-23T06:48:55.111Z,4.64
2023-01-23T06:51:23.862Z,4.92
2023-01-23T06:53:52.799Z,5.03
2023-01-23T06:56:23.899Z,5.04
2023-01-23T06:58:54.134Z,5.18
2023-01-23T07:01:29.683Z,5.52
2023-01-23T07:04:17.110Z,5.33
2023-01-23T07:06:46.536Z,5.46
2023-01-23T07:09:17.567Z,5.21
2023-01-23T07:11:52.688Z,5.67
2023-01-23T07:14:23.900Z,5.48
2023-01-23T07:16:55.722Z,5.59
2023-01-23T07:19:24.175Z,5.50
2023-01-23T07:21:52.811Z,5.72
2023-01-23T07:24:21.418Z,5.19
2023-01-23T07:26:49.844Z,5.89
2023-01-23T07:29:20.357Z,5.82
2023-01-23T07:31:48.651Z,5.91
2023-01-23T07:34:18.628Z,5.90
2023-01-23T07:36:47.123Z,5.97
2023-01-23T07:39:16.157Z,5.57
2023-01-23T07:41:46.394Z,5.97
2023-01-23T07:44:18.827Z,5.64
2023-01-23T07:46:48.274Z,5.87
2023-01-23T07:49:19.330Z,5.40
2023-01-23T07:51:47.799Z,5.47
2023-01-23T07:54:16.400Z,5.50
2023-01-23T07:56:44.940Z,5.46
2023-01-23T07:59:13.980Z,5.29
2023-01-23T08:01:42.676Z,5.61
2023-01-23T08:04:11.193Z,5.78
2023-01-23T08:06:41.083Z,5.52
2023-01-23T08:09:09.881Z,5.78
2023-01-23T08:11:38.299Z,5.74
2023-01-23T08:14:07.178Z,5.95
2023-01-23T08:16:36.032Z,5.77
2023-01-23T08:19:09.240Z,5.67
2023-01-23T08:21:37.710Z,5.77
2023-01-23T08:24:08.738Z,5.86
2023-01-23T08:26:37.313Z,5.59
2023-01-23T08:29:06.190Z,5.68
2023-01-23T08:31:36.058Z,5.68
2023-01-23T08:34:05.277Z,5.88
2023-01-23T08:36:34.005Z,5.40
2023-01-23T08:39:02.557Z,6.06
2023-01-23T08:41:32.429Z,5.91
2023-01-23T08:44:01.863Z,5.58
2023-01-23T08:46:30.699Z,5.55
2023-01-23T08:49:05.413Z,5.97
2023-01-23T08:51:34.425Z,6.12
2023-01-23T08:54:02.825Z,6.20
2023-01-23T08:56:32.650Z,6.18
2023-01-23T08:59:01.210Z,6.08
2023-01-23T09:01:29.733Z,6.22
2023-01-23T09:03:58.847Z,6.04
2023-01-23T09:06:27.405Z,6.19
2023-01-23T09:08:55.925Z,5.67
2023-01-23T09:11:24.391Z,5.81
2023-01-23T09:13:54.329Z,6.27
2023-01-23T09:16:22.833Z,6.25
2023-01-23T09:18:51.321Z,6.31
2023-01-23T09:21:19.841Z,6.23
2023-01-23T09:23:48.414Z,6.32
2023-01-23T09:26:19.556Z,6.26
2023-01-23T09:28:48.322Z,6.03
2023-01-23T09:31:19.343Z,6.42
2023-01-23T09:33:49.847Z,6.51
2023-01-23T09:36:33.654Z,4.28
2023-01-23T09:39:09.401Z,6.56
2023-01-23T09:41:39.795Z,6.33
2023-01-23T09:44:16.934Z,6.56
2023-01-23T09:46:50.907Z,6.70
2023-01-23T09:49:27.021Z,6.75
2023-01-23T09:52:01.267Z,6.79
2023-01-23T09:54:46.639Z,6.70
2023-01-23T09:57:18.577Z,6.81
2023-01-23T10:00:00.794Z,6.62
2023-01-23T10:02:31.026Z,6.55
2023-01-23T10:05:02.987Z,6.68
2023-01-23T10:07:55.769Z,6.85
2023-01-23T10:10:49.706Z,6.76
2023-01-23T10:13:36.885Z,6.60
2023-01-23T10:16:50.499Z,6.64
2023-01-23T10:19:45.371Z,6.20
2023-01-23T10:22:34.526Z,6.51
2023-01-23T10:25:11.701Z,6.08
2023-01-23T10:27:44.101Z,6.16
2023-01-23T10:30:28.308Z,5.10
2023-01-23T10:33:02.560Z,5.46
2023-01-23T10:35:42.027Z,5.76
2023-01-23T10:38:29.147Z,5.33
2023-01-23T10:41:17.808Z,5.80
2023-01-23T10:43:49.048Z,5.68
2023-01-23T10:46:20.247Z,6.02
2023-01-23T10:48:51.027Z,5.95
2023-01-23T10:51:32.614Z,6.30
2023-01-23T10:54:31.380Z,5.96
2023-01-23T10:57:02.886Z,6.17
2023-01-23T10:59:36.509Z,6.25
2023-01-23T11:02:22.103Z,6.11
2023-01-23T11:04:52.881Z,6.53
2023-01-23T11:07:23.708Z,6.49
2023-01-23T11:09:56.299Z,6.04
2023-01-23T11:12:26.921Z,6.19
2023-01-23T11:15:13.932Z,6.66
2023-01-23T11:17:44.615Z,6.64
2023-01-23T11:20:25.676Z,6.85
2023-01-23T11:23:08.517Z,7.03
2023-01-23T11:25:39.901Z,7.01
2023-01-23T11:28:24.838Z,7.06
2023-01-23T11:31:12.244Z,7.08
2023-01-23T11:33:47.837Z,6.47
2023-01-23T11:36:39.666Z,7.11
2023-01-23T11:39:20.338Z,7.37
2023-01-23T11:41:49.032Z,7.08
2023-01-23T11:44:21.129Z,7.62
2023-01-23T11:47:29.612Z,7.51
2023-01-23T11:50:17.152Z,7.46
2023-01-23T11:52:59.254Z,7.41
2023-01-23T11:55:46.892Z,7.46
2023-01-23T11:58:50.825Z,7.85
2023-01-23T12:01:25.184Z,7.87
2023-01-23T12:04:22.944Z,8.02
2023-01-23T12:07:17.695Z,8.07
2023-01-23T12:10:02.070Z,8.11
2023-01-23T12:13:00.140Z,8.27
2023-01-23T12:15:35.811Z,8.05
2023-01-23T12:18:17.269Z,8.30
2023-01-23T12:20:55.452Z,8.44
2023-01-23T12:23:40.164Z,8.59
2023-01-23T12:26:15.751Z,8.57
2023-01-23T12:29:15.678Z,8.26
2023-01-23T12:32:01.788Z,8.49
2023-01-23T12:34:52.200Z,8.54
2023-01-23T12:37:43.426Z,7.96
2023-01-23T12:40:17.095Z,8.58
2023-01-23T12:42:53.986Z,7.96
2023-01-23T12:45:26.261Z,7.78
2023-01-23T12:48:04.955Z,7.18
2023-01-23T12:50:43.669Z,7.78
2023-01-23T12:53:15.856Z,8.23
2023-01-23T12:55:57.222Z,7.41
2023-01-23T12:58:29.695Z,6.84
2023-01-23T13:01:14.262Z,7.21
2023-01-23T13:04:05.390Z,7.57
2023-01-23T13:07:31.516Z,7.31
2023-01-23T13:10:59.289Z,5.95
2023-01-23T13:13:28.878Z,6.87
2023-01-23T13:16:13.396Z,7.15
2023-01-23T13:19:15.103Z,6.94
2023-01-23T13:22:06.671Z,7.36
2023-01-23T13:25:03.024Z,7.73
2023-01-23T13:27:51.331Z,7.02
2023-01-23T13:31:04.798Z,7.47
2023-01-23T13:33:58.818Z,7.43
2023-01-23T13:36:35.931Z,7.10
2023-01-23T13:39:28.004Z,7.77
2023-01-23T13:42:45.782Z,7.05
2023-01-23T13:45:29.800Z,7.12
2023-01-23T14:21:55.100Z,7.39
2023-01-23T14:24:26.426Z,5.96
2023-01-23T14:27:07.480Z,6.76
2023-01-23T14:29:36.259Z,6.58
2023-01-23T14:32:05.136Z,6.94
2023-01-23T14:34:40.968Z,7.31
2023-01-23T14:37:13.715Z,7.35
2023-01-23T14:39:53.096Z,7.09
2023-01-23T14:42:29.482Z,6.71
2023-01-23T14:45:01.925Z,6.87
2023-01-23T14:47:35.298Z,7.38
2023-01-23T14:50:05.324Z,7.58
2023-01-23T14:52:35.166Z,7.68
2023-01-23T14:55:08.028Z,8.06
2023-01-23T14:57:37.834Z,8.02
2023-01-23T15:00:08.889Z,8.34
2023-01-23T15:02:37.812Z,8.21
2023-01-23T15:05:16.734Z,8.17
2023-01-23T15:07:49.384Z,7.14
2023-01-23T15:10:20.833Z,7.11
2023-01-23T15:12:56.068Z,7.35
2023-01-23T15:15:26.610Z,7.13
2023-01-23T15:17:55.894Z,6.91
2023-01-23T15:20:38.404Z,6.89
2023-01-23T15:23:31.544Z,6.54
2023-01-23T15:26:34.523Z,6.47
2023-01-23T15:29:06.046Z,6.37
2023-01-23T15:31:36.813Z,6.18
2023-01-23T15:34:28.039Z,6.20
2023-01-23T15:37:01.228Z,6.57
2023-01-23T15:39:34.236Z,6.42
2023-01-23T15:42:05.789Z,5.96
2023-01-23T15:44:34.558Z,6.53
2023-01-23T15:47:04.356Z,5.64
2023-01-23T15:49:36.110Z,6.73
2023-01-23T15:52:21.436Z,6.66
2023-01-23T15:54:53.477Z,6.79
2023-01-23T15:57:21.937Z,6.92
2023-01-23T15:59:50.381Z,6.60
2023-01-23T16:02:30.639Z,7.12
2023-01-23T16:05:01.163Z,7.08
2023-01-23T16:07:35.010Z,7.00
2023-01-23T16:10:18.025Z,6.73
2023-01-23T16:12:50.654Z,6.79
2023-01-23T16:15:21.690Z,6.58
2023-01-23T16:17:50.982Z,6.98
2023-01-23T16:20:23.374Z,7.29
2023-01-23T16:22:54.575Z,7.44
2023-01-23T16:25:43.148Z,7.57
2023-01-23T16:28:14.528Z,7.61
2023-01-23T16:30:43.475Z,7.32
2023-01-23T16:33:12.140Z,7.63
2023-01-23T16:35:41.281Z,7.76
2023-01-23T16:38:21.458Z,7.83
2023-01-23T16:40:53.343Z,7.79
2023-01-23T16:43:22.547Z,7.60
2023-01-23T16:45:53.692Z,7.76
2023-01-23T16:48:28.283Z,7.95
2023-01-23T16:51:01.986Z,7.92
2023-01-23T16:53:32.874Z,7.95
2023-01-23T16:56:04.636Z,7.78
2023-01-23T16:58:40.144Z,7.91
2023-01-23T17:01:15.106Z,7.49
2023-01-23T17:03:43.848Z,7.98
2023-01-23T17:06:15.595Z,7.77
2023-01-23T17:08:44.569Z,7.98
2023-01-23T17:11:22.843Z,8.06
2023-01-23T17:13:58.680Z,8.04
2023-01-23T17:16:28.264Z,8.20
2023-01-23T17:19:01.156Z,8.05
2023-01-23T17:21:34.035Z,8.21
2023-01-23T17:24:02.831Z,8.21
2023-01-23T17:26:32.739Z,8.04
2023-01-23T17:29:01.179Z,6.34
2023-01-23T17:31:32.694Z,8.19
2023-01-23T17:34:03.104Z,8.07
2023-01-23T17:36:31.602Z,8.14
2023-01-23T17:39:01.173Z,5.75
2023-01-23T17:41:31.571Z,8.08
2023-01-23T17:44:02.105Z,7.33
2023-01-23T17:46:34.206Z,7.88
2023-01-23T17:49:02.758Z,7.88
2023-01-23T17:51:32.775Z,7.97
2023-01-23T17:54:01.219Z,7.91
2023-01-23T17:56:29.623Z,7.90
2023-01-23T17:58:58.096Z,7.60
2023-01-23T18:01:28.331Z,7.86
2023-01-23T18:03:56.754Z,7.88
2023-01-23T18:06:25.144Z,7.79
2023-01-23T18:08:53.819Z,7.79
2023-01-23T18:11:24.772Z,7.73
2023-01-23T18:14:26.205Z,7.69
2023-01-23T18:16:57.000Z,7.61
2023-01-23T18:19:26.818Z,7.42
2023-01-23T18:21:58.184Z,7.56
2023-01-23T18:24:30.586Z,7.34
2023-01-23T18:27:01.744Z,7.40
2023-01-23T18:29:44.484Z,7.43
2023-01-23T18:32:50.020Z,7.44
2023-01-23T18:35:30.517Z,7.05
2023-01-23T18:38:09.161Z,7.35
2023-01-23T18:40:45.314Z,7.21
2023-01-23T18:43:32.719Z,7.17
2023-01-23T18:46:02.215Z,7.26
2023-01-23T18:48:32.847Z,6.55
2023-01-23T18:51:09.579Z,6.80
2023-01-23T18:53:48.017Z,6.79
2023-01-23T18:56:29.865Z,6.89
2023-01-23T18:59:12.993Z,6.88
2023-01-23T19:01:53.483Z,6.66
2023-01-23T19:04:34.448Z,6.43
2023-01-23T19:07:04.210Z,6.44
2023-01-23T19:09:36.215Z,6.73
2023-01-23T19:12:25.782Z,6.77
2023-01-23T19:15:10.113Z,6.77
2023-01-23T19:17:47.452Z,6.56
2023-01-23T19:20:30.222Z,6.62
2023-01-23T19:23:22.612Z,6.89
2023-01-23T19:25:51.435Z,6.73
2023-01-23T19:28:24.176Z,6.80
2023-01-23T19:30:53.465Z,6.89
2023-01-23T19:33:23.422Z,6.63
2023-01-23T19:35:56.872Z,7.04
2023-01-23T19:38:26.663Z,7.05
2023-01-23T19:40:56.965Z,7.22
2023-01-23T19:43:27.302Z,7.28
2023-01-23T19:45:56.540Z,7.30
2023-01-23T19:48:25.095Z,6.54
2023-01-23T19:50:54.939Z,7.03
2023-01-23T19:53:24.275Z,6.68
2023-01-23T19:55:52.882Z,5.84
2023-01-23T19:58:21.474Z,6.89
2023-01-23T20:00:50.294Z,6.97
2023-01-23T20:03:18.674Z,7.07
2023-01-23T20:05:47.095Z,6.45
2023-01-23T20:08:17.329Z,7.10
2023-01-23T20:10:45.793Z,6.65
2023-01-23T20:13:15.158Z,6.77
2023-01-23T20:15:44.040Z,6.78
2023-01-23T20:18:12.923Z,6.77
2023-01-23T20:20:41.360Z,5.79
2023-01-23T20:23:10.125Z,6.11
2023-01-23T20:25:40.014Z,6.41
2023-01-23T20:28:08.550Z,6.59
2023-01-23T20:30:37.118Z,6.29
2023-01-23T20:33:08.343Z,6.43
2023-01-23T20:35:39.784Z,5.94
2023-01-23T20:38:08.257Z,5.68
2023-01-23T20:40:36.692Z,6.27
2023-01-23T20:43:06.617Z,6.42
2023-01-23T20:45:35.076Z,6.35
2023-01-23T20:48:03.490Z,6.02
2023-01-23T20:50:32.240Z,5.82
2023-01-23T20:53:19.273Z,5.64
2023-01-23T20:55:53.970Z,5.63
2023-01-23T20:58:41.543Z,5.78
2023-01-23T21:01:10.562Z,5.98
2023-01-23T21:03:40.322Z,6.07
2023-01-23T21:06:09.869Z,6.22
2023-01-23T21:08:38.777Z,6.27
2023-01-23T21:11:08.825Z,6.32
2023-01-23T21:13:38.937Z,5.53
2023-01-23T21:16:12.057Z,5.68
2023-01-23T21:18:44.694Z,5.86
2023-01-23T21:21:16.178Z,5.95
2023-01-23T21:23:46.920Z,5.93
2023-01-23T21:26:16.015Z,5.33
2023-01-23T21:28:47.983Z,6.07
2023-01-23T21:31:23.178Z,6.09
2023-01-23T21:33:52.342Z,5.19
2023-01-23T21:36:24.476Z,5.30
2023-01-23T21:38:54.122Z,5.84
2023-01-23T21:41:23.165Z,5.73
2023-01-23T21:43:53.001Z,5.66
2023-01-23T21:46:24.929Z,5.74
2023-01-23T21:48:53.379Z,6.13
2023-01-23T21:51:27.797Z,5.38
2023-01-23T21:53:56.495Z,6.06
2023-01-23T21:56:25.840Z,6.14
2023-01-23T21:58:56.084Z,5.91
2023-01-23T22:01:42.599Z,5.94
2023-01-23T22:04:13.556Z,5.78
2023-01-23T22:06:44.294Z,5.89
2023-01-23T22:09:17.385Z,6.11
2023-01-23T22:11:46.319Z,5.99
2023-01-23T22:14:16.462Z,5.86
2023-01-23T22:16:50.331Z,5.56
2023-01-23T22:19:24.516Z,5.75
2023-01-23T22:21:54.176Z,5.25
2023-01-23T22:24:22.720Z,5.24
2023-01-23T22:26:51.460Z,5.26
2023-01-23T22:29:23.168Z,5.82
2023-01-23T22:31:52.382Z,5.77
2023-01-23T22:34:21.124Z,5.45
2023-01-23T22:36:49.603Z,5.12
2023-01-23T22:39:19.697Z,5.28
2023-01-23T22:41:50.246Z,5.02
2023-01-23T22:44:20.414Z,5.64
2023-01-23T22:46:51.772Z,5.85
2023-01-23T22:49:22.319Z,6.17
2023-01-23T22:51:51.504Z,6.02
2023-01-23T22:54:19.941Z,6.04
2023-01-23T22:56:48.417Z,6.06
2023-01-23T22:59:16.962Z,5.76
2023-01-23T23:01:46.749Z,5.81
2023-01-23T23:04:15.192Z,5.98
2023-01-23T23:06:43.787Z,5.79
2023-01-23T23:09:12.272Z,6.00
2023-01-23T23:11:40.867Z,5.37
2023-01-23T23:14:12.120Z,5.46
2023-01-23T23:16:41.012Z,5.74
2023-01-23T23:19:13.441Z,5.55
2023-01-23T23:21:42.148Z,5.86
2023-01-23T23:24:14.193Z,5.94
2023-01-23T23:26:42.701Z,5.76
2023-01-23T23:29:11.090Z,4.98
2023-01-23T23:31:39.599Z,5.27
2023-01-23T23:34:12.338Z,5.30
2023-01-23T23:36:41.089Z,5.69
2023-01-23T23:39:09.554Z,5.53
2023-01-23T23:41:37.931Z,5.61
2023-01-23T23:44:06.769Z,5.69
2023-01-23T23:46:35.224Z,5.62
2023-01-23T23:49:03.846Z,5.76
2023-01-23T23:51:33.643Z,5.72
2023-01-23T23:54:02.042Z,5.47
2023-01-23T23:56:32.141Z,5.09
2023-01-23T23:59:00.737Z,5.11
